sensor_id;sensor_type;location;lat;lon;timestamp;P1;durP1;ratioP1;P2;durP2;ratioP2
53052;SDS011;38934;52.690;6.184;2022-08-20T00:00:59;6.80;;;5.20;;
53052;SDS011;38934;52.690;6.184;2022-08-20T00:03:27;7.68;;;4.78;;
53052;SDS011;38934;52.690;6.184;2022-08-20T00:08:24;10.13;;;5.85;;
53052;SDS011;38934;52.690;6.184;2022-08-20T00:10:51;8.25;;;5.88;;
53052;SDS011;38934;52.690;6.184;2022-08-20T00:13:19;12.45;;;5.95;;
53052;SDS011;38934;52.690;6.184;2022-08-20T00:15:48;8.85;;;5.78;;
53052;SDS011;38934;52.690;6.184;2022-08-20T00:18:14;8.27;;;5.55;;
53052;SDS011;38934;52.690;6.184;2022-08-20T00:20:41;7.47;;;5.50;;
53052;SDS011;38934;52.690;6.184;2022-08-20T00:23:09;8.70;;;5.20;;
53052;SDS011;38934;52.690;6.184;2022-08-20T00:25:35;9.30;;;5.50;;
53052;SDS011;38934;52.690;6.184;2022-08-20T00:28:02;8.32;;;5.28;;
53052;SDS011;38934;52.690;6.184;2022-08-20T00:30:29;7.35;;;5.55;;
53052;SDS011;38934;52.690;6.184;2022-08-20T00:32:57;8.95;;;5.93;;
53052;SDS011;38934;52.690;6.184;2022-08-20T00:35:27;7.43;;;5.68;;
53052;SDS011;38934;52.690;6.184;2022-08-20T00:37:54;9.25;;;5.53;;
53052;SDS011;38934;52.690;6.184;2022-08-20T00:40:21;6.97;;;4.97;;
53052;SDS011;38934;52.690;6.184;2022-08-20T00:42:50;8.63;;;5.43;;
53052;SDS011;38934;52.690;6.184;2022-08-20T00:45:25;8.32;;;5.40;;
53052;SDS011;38934;52.690;6.184;2022-08-20T00:47:56;7.88;;;5.22;;
53052;SDS011;38934;52.690;6.184;2022-08-20T00:50:25;8.60;;;5.75;;
53052;SDS011;38934;52.690;6.184;2022-08-20T00:52:58;7.30;;;4.72;;
53052;SDS011;38934;52.690;6.184;2022-08-20T00:55:27;7.97;;;6.05;;
53052;SDS011;38934;52.690;6.184;2022-08-20T00:57:55;8.23;;;5.47;;
53052;SDS011;38934;52.690;6.184;2022-08-20T01:00:25;9.10;;;5.20;;
53052;SDS011;38934;52.690;6.184;2022-08-20T01:02:54;9.02;;;5.90;;
53052;SDS011;38934;52.690;6.184;2022-08-20T01:05:20;9.15;;;5.78;;
53052;SDS011;38934;52.690;6.184;2022-08-20T01:07:47;10.85;;;6.03;;
53052;SDS011;38934;52.690;6.184;2022-08-20T01:10:18;9.82;;;5.35;;
53052;SDS011;38934;52.690;6.184;2022-08-20T01:12:52;9.82;;;5.78;;
53052;SDS011;38934;52.690;6.184;2022-08-20T01:15:22;8.80;;;5.40;;
53052;SDS011;38934;52.690;6.184;2022-08-20T01:17:53;9.48;;;6.07;;
53052;SDS011;38934;52.690;6.184;2022-08-20T01:20:38;8.23;;;5.22;;
53052;SDS011;38934;52.690;6.184;2022-08-20T01:31:00;8.30;;;5.30;;
53052;SDS011;38934;52.690;6.184;2022-08-20T01:33:26;9.43;;;5.50;;
53052;SDS011;38934;52.690;6.184;2022-08-20T01:35:52;8.20;;;6.00;;
53052;SDS011;38934;52.690;6.184;2022-08-20T01:38:18;8.18;;;5.35;;
53052;SDS011;38934;52.690;6.184;2022-08-20T01:43:24;8.30;;;5.60;;
53052;SDS011;38934;52.690;6.184;2022-08-20T01:45:50;12.05;;;5.80;;
53052;SDS011;38934;52.690;6.184;2022-08-20T01:48:17;12.05;;;6.18;;
53052;SDS011;38934;52.690;6.184;2022-08-20T01:50:44;11.18;;;5.80;;
53052;SDS011;38934;52.690;6.184;2022-08-20T01:53:19;12.32;;;6.63;;
53052;SDS011;38934;52.690;6.184;2022-08-20T01:55:52;9.88;;;6.15;;
53052;SDS011;38934;52.690;6.184;2022-08-20T01:58:18;10.35;;;6.25;;
53052;SDS011;38934;52.690;6.184;2022-08-20T02:00:43;11.60;;;5.97;;
53052;SDS011;38934;52.690;6.184;2022-08-20T02:03:09;9.00;;;5.85;;
53052;SDS011;38934;52.690;6.184;2022-08-20T02:05:35;10.68;;;6.03;;
53052;SDS011;38934;52.690;6.184;2022-08-20T02:08:00;9.63;;;6.10;;
53052;SDS011;38934;52.690;6.184;2022-08-20T02:10:27;8.32;;;5.30;;
53052;SDS011;38934;52.690;6.184;2022-08-20T02:12:55;9.40;;;5.50;;
53052;SDS011;38934;52.690;6.184;2022-08-20T02:15:21;11.55;;;6.38;;
53052;SDS011;38934;52.690;6.184;2022-08-20T02:17:47;11.48;;;6.03;;
53052;SDS011;38934;52.690;6.184;2022-08-20T02:20:15;12.30;;;5.60;;
53052;SDS011;38934;52.690;6.184;2022-08-20T02:25:13;12.15;;;5.97;;
53052;SDS011;38934;52.690;6.184;2022-08-20T02:27:42;12.35;;;6.30;;
53052;SDS011;38934;52.690;6.184;2022-08-20T02:30:12;9.52;;;5.00;;
53052;SDS011;38934;52.690;6.184;2022-08-20T02:32:44;6.88;;;5.40;;
53052;SDS011;38934;52.690;6.184;2022-08-20T02:35:10;10.40;;;5.80;;
53052;SDS011;38934;52.690;6.184;2022-08-20T02:37:38;8.60;;;5.15;;
53052;SDS011;38934;52.690;6.184;2022-08-20T02:40:07;8.88;;;5.32;;
53052;SDS011;38934;52.690;6.184;2022-08-20T02:42:35;8.70;;;5.70;;
53052;SDS011;38934;52.690;6.184;2022-08-20T02:45:03;9.13;;;5.07;;
53052;SDS011;38934;52.690;6.184;2022-08-20T02:47:30;8.05;;;5.30;;
53052;SDS011;38934;52.690;6.184;2022-08-20T02:49:56;9.57;;;5.57;;
53052;SDS011;38934;52.690;6.184;2022-08-20T02:52:23;7.28;;;4.82;;
53052;SDS011;38934;52.690;6.184;2022-08-20T02:54:50;7.75;;;5.30;;
53052;SDS011;38934;52.690;6.184;2022-08-20T02:57:16;7.50;;;4.97;;
53052;SDS011;38934;52.690;6.184;2022-08-20T02:59:47;7.43;;;5.05;;
53052;SDS011;38934;52.690;6.184;2022-08-20T03:02:13;8.57;;;5.45;;
53052;SDS011;38934;52.690;6.184;2022-08-20T03:04:40;7.32;;;5.05;;
53052;SDS011;38934;52.690;6.184;2022-08-20T03:07:07;9.48;;;5.18;;
53052;SDS011;38934;52.690;6.184;2022-08-20T03:09:34;6.65;;;4.70;;
53052;SDS011;38934;52.690;6.184;2022-08-20T03:12:00;7.90;;;4.32;;
53052;SDS011;38934;52.690;6.184;2022-08-20T03:14:27;8.55;;;5.32;;
53052;SDS011;38934;52.690;6.184;2022-08-20T03:16:52;7.40;;;5.07;;
53052;SDS011;38934;52.690;6.184;2022-08-20T03:19:18;9.25;;;5.38;;
53052;SDS011;38934;52.690;6.184;2022-08-20T03:21:44;9.38;;;5.40;;
53052;SDS011;38934;52.690;6.184;2022-08-20T03:24:10;8.63;;;5.40;;
53052;SDS011;38934;52.690;6.184;2022-08-20T03:26:35;10.70;;;5.30;;
53052;SDS011;38934;52.690;6.184;2022-08-20T03:29:01;9.23;;;5.35;;
53052;SDS011;38934;52.690;6.184;2022-08-20T03:31:27;9.48;;;5.18;;
53052;SDS011;38934;52.690;6.184;2022-08-20T03:33:53;8.82;;;4.97;;
53052;SDS011;38934;52.690;6.184;2022-08-20T03:36:20;9.63;;;5.30;;
53052;SDS011;38934;52.690;6.184;2022-08-20T03:38:46;8.80;;;4.50;;
53052;SDS011;38934;52.690;6.184;2022-08-20T03:41:12;5.90;;;4.30;;
53052;SDS011;38934;52.690;6.184;2022-08-20T03:43:38;9.73;;;5.15;;
53052;SDS011;38934;52.690;6.184;2022-08-20T03:46:05;8.52;;;5.43;;
53052;SDS011;38934;52.690;6.184;2022-08-20T03:48:31;6.80;;;4.50;;
53052;SDS011;38934;52.690;6.184;2022-08-20T03:50:58;8.73;;;5.15;;
53052;SDS011;38934;52.690;6.184;2022-08-20T03:53:25;9.57;;;5.30;;
53052;SDS011;38934;52.690;6.184;2022-08-20T03:55:53;7.25;;;4.93;;
53052;SDS011;38934;52.690;6.184;2022-08-20T03:58:20;9.65;;;5.22;;
53052;SDS011;38934;52.690;6.184;2022-08-20T04:00:47;8.00;;;5.20;;
53052;SDS011;38934;52.690;6.184;2022-08-20T04:03:16;10.48;;;4.90;;
53052;SDS011;38934;52.690;6.184;2022-08-20T04:05:42;8.45;;;5.00;;
53052;SDS011;38934;52.690;6.184;2022-08-20T04:08:11;9.10;;;4.95;;
53052;SDS011;38934;52.690;6.184;2022-08-20T04:10:42;11.40;;;5.03;;
53052;SDS011;38934;52.690;6.184;2022-08-20T04:13:09;10.32;;;4.88;;
53052;SDS011;38934;52.690;6.184;2022-08-20T04:15:35;9.32;;;5.35;;
53052;SDS011;38934;52.690;6.184;2022-08-20T04:18:01;10.38;;;5.60;;
53052;SDS011;38934;52.690;6.184;2022-08-20T04:20:31;7.20;;;5.13;;
53052;SDS011;38934;52.690;6.184;2022-08-20T04:22:57;8.15;;;5.40;;
53052;SDS011;38934;52.690;6.184;2022-08-20T04:25:23;6.60;;;5.03;;
53052;SDS011;38934;52.690;6.184;2022-08-20T04:27:49;11.65;;;5.32;;
53052;SDS011;38934;52.690;6.184;2022-08-20T04:30:16;9.02;;;5.10;;
53052;SDS011;38934;52.690;6.184;2022-08-20T04:32:43;10.15;;;5.45;;
53052;SDS011;38934;52.690;6.184;2022-08-20T04:35:11;10.55;;;5.82;;
53052;SDS011;38934;52.690;6.184;2022-08-20T04:37:45;12.65;;;5.75;;
53052;SDS011;38934;52.690;6.184;2022-08-20T04:40:14;10.55;;;5.95;;
53052;SDS011;38934;52.690;6.184;2022-08-20T04:43:00;9.45;;;5.20;;
53052;SDS011;38934;52.690;6.184;2022-08-20T04:45:26;10.80;;;5.47;;
53052;SDS011;38934;52.690;6.184;2022-08-20T04:47:52;9.13;;;5.50;;
53052;SDS011;38934;52.690;6.184;2022-08-20T04:50:18;11.57;;;6.10;;
53052;SDS011;38934;52.690;6.184;2022-08-20T04:52:44;11.23;;;5.60;;
53052;SDS011;38934;52.690;6.184;2022-08-20T04:55:12;9.63;;;5.20;;
53052;SDS011;38934;52.690;6.184;2022-08-20T04:57:37;9.50;;;5.45;;
53052;SDS011;38934;52.690;6.184;2022-08-20T05:00:04;8.23;;;5.55;;
53052;SDS011;38934;52.690;6.184;2022-08-20T05:02:35;8.98;;;5.55;;
53052;SDS011;38934;52.690;6.184;2022-08-20T05:05:02;10.32;;;5.30;;
53052;SDS011;38934;52.690;6.184;2022-08-20T05:07:29;10.80;;;5.47;;
53052;SDS011;38934;52.690;6.184;2022-08-20T05:09:54;8.75;;;5.32;;
53052;SDS011;38934;52.690;6.184;2022-08-20T05:12:20;14.75;;;5.85;;
53052;SDS011;38934;52.690;6.184;2022-08-20T05:14:45;9.20;;;5.50;;
53052;SDS011;38934;52.690;6.184;2022-08-20T05:17:11;8.15;;;4.82;;
53052;SDS011;38934;52.690;6.184;2022-08-20T05:19:40;9.20;;;4.22;;
53052;SDS011;38934;52.690;6.184;2022-08-20T05:22:06;7.38;;;4.22;;
53052;SDS011;38934;52.690;6.184;2022-08-20T05:24:32;10.23;;;4.65;;
53052;SDS011;38934;52.690;6.184;2022-08-20T05:26:58;8.55;;;4.60;;
53052;SDS011;38934;52.690;6.184;2022-08-20T05:29:24;8.32;;;4.50;;
53052;SDS011;38934;52.690;6.184;2022-08-20T05:31:49;7.90;;;4.55;;
53052;SDS011;38934;52.690;6.184;2022-08-20T05:34:15;10.27;;;4.32;;
53052;SDS011;38934;52.690;6.184;2022-08-20T05:36:42;7.95;;;4.22;;
53052;SDS011;38934;52.690;6.184;2022-08-20T05:39:12;6.72;;;4.07;;
53052;SDS011;38934;52.690;6.184;2022-08-20T05:41:38;9.75;;;4.13;;
53052;SDS011;38934;52.690;6.184;2022-08-20T05:44:04;8.10;;;3.67;;
53052;SDS011;38934;52.690;6.184;2022-08-20T05:49:05;4.60;;;2.78;;
53052;SDS011;38934;52.690;6.184;2022-08-20T05:51:31;9.10;;;3.50;;
53052;SDS011;38934;52.690;6.184;2022-08-20T05:53:57;7.43;;;2.90;;
53052;SDS011;38934;52.690;6.184;2022-08-20T05:56:22;8.45;;;2.50;;
53052;SDS011;38934;52.690;6.184;2022-08-20T05:58:48;6.78;;;2.50;;
53052;SDS011;38934;52.690;6.184;2022-08-20T06:01:14;8.18;;;2.90;;
53052;SDS011;38934;52.690;6.184;2022-08-20T06:03:39;6.60;;;2.50;;
53052;SDS011;38934;52.690;6.184;2022-08-20T06:06:24;4.63;;;2.42;;
53052;SDS011;38934;52.690;6.184;2022-08-20T06:08:49;6.30;;;2.55;;
53052;SDS011;38934;52.690;6.184;2022-08-20T06:11:15;6.22;;;2.63;;
53052;SDS011;38934;52.690;6.184;2022-08-20T06:13:40;7.57;;;2.95;;
53052;SDS011;38934;52.690;6.184;2022-08-20T06:16:06;9.07;;;2.65;;
53052;SDS011;38934;52.690;6.184;2022-08-20T06:18:32;7.28;;;2.75;;
53052;SDS011;38934;52.690;6.184;2022-08-20T06:20:57;9.63;;;3.08;;
53052;SDS011;38934;52.690;6.184;2022-08-20T06:23:26;6.50;;;2.67;;
53052;SDS011;38934;52.690;6.184;2022-08-20T06:25:51;5.95;;;2.60;;
53052;SDS011;38934;52.690;6.184;2022-08-20T06:28:17;5.95;;;2.20;;
53052;SDS011;38934;52.690;6.184;2022-08-20T06:30:43;5.78;;;2.30;;
53052;SDS011;38934;52.690;6.184;2022-08-20T06:33:09;5.60;;;2.42;;
53052;SDS011;38934;52.690;6.184;2022-08-20T06:35:34;5.75;;;2.03;;
53052;SDS011;38934;52.690;6.184;2022-08-20T06:38:02;5.82;;;2.40;;
53052;SDS011;38934;52.690;6.184;2022-08-20T06:40:29;4.72;;;1.80;;
53052;SDS011;38934;52.690;6.184;2022-08-20T06:42:55;6.07;;;2.10;;
53052;SDS011;38934;52.690;6.184;2022-08-20T06:45:23;5.20;;;1.80;;
53052;SDS011;38934;52.690;6.184;2022-08-20T06:47:51;9.13;;;2.13;;
53052;SDS011;38934;52.690;6.184;2022-08-20T06:50:20;5.30;;;1.77;;
53052;SDS011;38934;52.690;6.184;2022-08-20T06:52:49;4.88;;;1.70;;
53052;SDS011;38934;52.690;6.184;2022-08-20T06:55:15;5.47;;;1.70;;
53052;SDS011;38934;52.690;6.184;2022-08-20T06:57:41;6.80;;;1.85;;
53052;SDS011;38934;52.690;6.184;2022-08-20T07:00:14;5.38;;;1.63;;
53052;SDS011;38934;52.690;6.184;2022-08-20T07:02:41;5.75;;;1.40;;
53052;SDS011;38934;52.690;6.184;2022-08-20T07:05:07;3.13;;;1.42;;
53052;SDS011;38934;52.690;6.184;2022-08-20T07:07:34;6.05;;;1.60;;
53052;SDS011;38934;52.690;6.184;2022-08-20T07:10:02;7.03;;;1.63;;
53052;SDS011;38934;52.690;6.184;2022-08-20T07:12:30;4.22;;;1.50;;
53052;SDS011;38934;52.690;6.184;2022-08-20T07:14:56;7.75;;;1.70;;
53052;SDS011;38934;52.690;6.184;2022-08-20T07:17:21;5.30;;;1.58;;
53052;SDS011;38934;52.690;6.184;2022-08-20T07:19:47;3.92;;;1.50;;
53052;SDS011;38934;52.690;6.184;2022-08-20T07:22:13;3.72;;;1.40;;
53052;SDS011;38934;52.690;6.184;2022-08-20T07:24:39;2.90;;;1.23;;
53052;SDS011;38934;52.690;6.184;2022-08-20T07:27:04;4.75;;;1.70;;
53052;SDS011;38934;52.690;6.184;2022-08-20T07:29:30;4.85;;;1.80;;
53052;SDS011;38934;52.690;6.184;2022-08-20T07:32:16;4.63;;;1.60;;
53052;SDS011;38934;52.690;6.184;2022-08-20T07:35:05;5.60;;;1.48;;
53052;SDS011;38934;52.690;6.184;2022-08-20T07:37:36;5.20;;;1.33;;
53052;SDS011;38934;52.690;6.184;2022-08-20T07:40:03;3.00;;;1.30;;
53052;SDS011;38934;52.690;6.184;2022-08-20T07:42:29;2.13;;;1.20;;
53052;SDS011;38934;52.690;6.184;2022-08-20T07:44:55;4.68;;;1.25;;
53052;SDS011;38934;52.690;6.184;2022-08-20T07:47:21;3.88;;;1.60;;
53052;SDS011;38934;52.690;6.184;2022-08-20T07:49:52;5.70;;;1.30;;
53052;SDS011;38934;52.690;6.184;2022-08-20T07:52:18;5.70;;;1.40;;
53052;SDS011;38934;52.690;6.184;2022-08-20T07:54:43;4.70;;;1.10;;
53052;SDS011;38934;52.690;6.184;2022-08-20T07:57:09;4.63;;;1.30;;
53052;SDS011;38934;52.690;6.184;2022-08-20T07:59:35;7.80;;;1.38;;
53052;SDS011;38934;52.690;6.184;2022-08-20T08:02:01;2.88;;;1.30;;
53052;SDS011;38934;52.690;6.184;2022-08-20T08:04:27;4.93;;;1.33;;
53052;SDS011;38934;52.690;6.184;2022-08-20T08:06:52;5.80;;;1.15;;
53052;SDS011;38934;52.690;6.184;2022-08-20T08:09:24;6.60;;;1.23;;
53052;SDS011;38934;52.690;6.184;2022-08-20T08:11:50;5.70;;;1.27;;
53052;SDS011;38934;52.690;6.184;2022-08-20T08:14:20;4.05;;;1.58;;
53052;SDS011;38934;52.690;6.184;2022-08-20T08:16:51;2.75;;;0.95;;
53052;SDS011;38934;52.690;6.184;2022-08-20T08:19:21;4.13;;;1.17;;
53052;SDS011;38934;52.690;6.184;2022-08-20T08:21:47;4.05;;;1.45;;
53052;SDS011;38934;52.690;6.184;2022-08-20T08:24:13;4.38;;;1.00;;
53052;SDS011;38934;52.690;6.184;2022-08-20T08:26:39;7.45;;;1.40;;
53052;SDS011;38934;52.690;6.184;2022-08-20T08:29:05;3.53;;;1.20;;
53052;SDS011;38934;52.690;6.184;2022-08-20T08:31:31;3.30;;;0.93;;
53052;SDS011;38934;52.690;6.184;2022-08-20T08:33:58;4.07;;;1.20;;
53052;SDS011;38934;52.690;6.184;2022-08-20T08:36:23;5.68;;;1.35;;
53052;SDS011;38934;52.690;6.184;2022-08-20T08:38:50;4.32;;;1.48;;
53052;SDS011;38934;52.690;6.184;2022-08-20T08:43:45;2.88;;;1.23;;
53052;SDS011;38934;52.690;6.184;2022-08-20T08:46:13;4.32;;;1.40;;
53052;SDS011;38934;52.690;6.184;2022-08-20T08:48:43;3.42;;;1.13;;
53052;SDS011;38934;52.690;6.184;2022-08-20T08:51:13;4.05;;;1.30;;
53052;SDS011;38934;52.690;6.184;2022-08-20T08:53:42;7.68;;;1.20;;
53052;SDS011;38934;52.690;6.184;2022-08-20T08:56:19;2.97;;;1.13;;
53052;SDS011;38934;52.690;6.184;2022-08-20T08:58:48;3.13;;;1.00;;
53052;SDS011;38934;52.690;6.184;2022-08-20T09:01:16;3.67;;;1.40;;
53052;SDS011;38934;52.690;6.184;2022-08-20T09:03:45;4.72;;;1.40;;
53052;SDS011;38934;52.690;6.184;2022-08-20T09:06:16;5.80;;;1.40;;
53052;SDS011;38934;52.690;6.184;2022-08-20T09:08:45;1.50;;;1.00;;
53052;SDS011;38934;52.690;6.184;2022-08-20T09:11:17;2.65;;;0.90;;
53052;SDS011;38934;52.690;6.184;2022-08-20T09:13:44;1.48;;;1.00;;
53052;SDS011;38934;52.690;6.184;2022-08-20T09:16:10;4.00;;;1.08;;
53052;SDS011;38934;52.690;6.184;2022-08-20T09:18:37;3.20;;;1.48;;
53052;SDS011;38934;52.690;6.184;2022-08-20T09:21:04;4.35;;;1.42;;
53052;SDS011;38934;52.690;6.184;2022-08-20T09:23:30;5.00;;;1.85;;
53052;SDS011;38934;52.690;6.184;2022-08-20T09:25:56;1.98;;;1.05;;
53052;SDS011;38934;52.690;6.184;2022-08-20T09:28:22;8.30;;;2.45;;
53052;SDS011;38934;52.690;6.184;2022-08-20T09:30:48;4.95;;;1.20;;
53052;SDS011;38934;52.690;6.184;2022-08-20T09:33:13;4.90;;;1.38;;
53052;SDS011;38934;52.690;6.184;2022-08-20T09:35:39;4.72;;;1.73;;
53052;SDS011;38934;52.690;6.184;2022-08-20T09:38:05;3.05;;;1.10;;
53052;SDS011;38934;52.690;6.184;2022-08-20T09:40:31;3.30;;;1.02;;
53052;SDS011;38934;52.690;6.184;2022-08-20T09:42:57;3.72;;;1.30;;
53052;SDS011;38934;52.690;6.184;2022-08-20T09:45:22;3.80;;;1.10;;
53052;SDS011;38934;52.690;6.184;2022-08-20T09:47:48;5.22;;;1.20;;
53052;SDS011;38934;52.690;6.184;2022-08-20T09:50:14;2.63;;;1.05;;
53052;SDS011;38934;52.690;6.184;2022-08-20T09:52:43;4.93;;;1.10;;
53052;SDS011;38934;52.690;6.184;2022-08-20T09:57:49;2.50;;;0.82;;
53052;SDS011;38934;52.690;6.184;2022-08-20T10:00:15;3.08;;;1.02;;
53052;SDS011;38934;52.690;6.184;2022-08-20T10:02:42;2.35;;;0.80;;
53052;SDS011;38934;52.690;6.184;2022-08-20T10:05:08;2.58;;;0.75;;
53052;SDS011;38934;52.690;6.184;2022-08-20T10:07:36;3.45;;;1.10;;
53052;SDS011;38934;52.690;6.184;2022-08-20T10:10:02;2.00;;;0.90;;
53052;SDS011;38934;52.690;6.184;2022-08-20T10:12:29;2.58;;;0.90;;
53052;SDS011;38934;52.690;6.184;2022-08-20T10:14:54;5.72;;;1.20;;
53052;SDS011;38934;52.690;6.184;2022-08-20T10:17:20;3.17;;;1.00;;
53052;SDS011;38934;52.690;6.184;2022-08-20T10:19:46;2.53;;;1.00;;
53052;SDS011;38934;52.690;6.184;2022-08-20T10:22:11;2.72;;;1.17;;
53052;SDS011;38934;52.690;6.184;2022-08-20T10:24:37;2.83;;;0.82;;
53052;SDS011;38934;52.690;6.184;2022-08-20T10:27:03;3.22;;;1.17;;
53052;SDS011;38934;52.690;6.184;2022-08-20T10:29:28;2.72;;;0.90;;
53052;SDS011;38934;52.690;6.184;2022-08-20T10:31:55;3.55;;;1.02;;
53052;SDS011;38934;52.690;6.184;2022-08-20T10:34:23;2.78;;;0.80;;
53052;SDS011;38934;52.690;6.184;2022-08-20T10:36:49;2.92;;;0.77;;
53052;SDS011;38934;52.690;6.184;2022-08-20T10:39:15;2.10;;;0.85;;
53052;SDS011;38934;52.690;6.184;2022-08-20T10:41:41;2.90;;;0.77;;
53052;SDS011;38934;52.690;6.184;2022-08-20T10:44:06;2.88;;;0.90;;
53052;SDS011;38934;52.690;6.184;2022-08-20T10:46:32;3.85;;;1.05;;
53052;SDS011;38934;52.690;6.184;2022-08-20T10:48:58;3.67;;;0.85;;
53052;SDS011;38934;52.690;6.184;2022-08-20T10:51:24;2.95;;;1.00;;
53052;SDS011;38934;52.690;6.184;2022-08-20T10:53:50;2.75;;;1.10;;
53052;SDS011;38934;52.690;6.184;2022-08-20T10:56:15;4.97;;;1.08;;
53052;SDS011;38934;52.690;6.184;2022-08-20T10:58:41;2.33;;;0.90;;
53052;SDS011;38934;52.690;6.184;2022-08-20T11:01:07;5.25;;;1.10;;
53052;SDS011;38934;52.690;6.184;2022-08-20T11:03:33;3.03;;;1.23;;
53052;SDS011;38934;52.690;6.184;2022-08-20T11:05:59;3.33;;;0.95;;
53052;SDS011;38934;52.690;6.184;2022-08-20T11:08:25;2.35;;;0.98;;
53052;SDS011;38934;52.690;6.184;2022-08-20T11:10:51;4.57;;;1.20;;
53052;SDS011;38934;52.690;6.184;2022-08-20T11:13:17;3.92;;;1.20;;
53052;SDS011;38934;52.690;6.184;2022-08-20T11:15:43;4.35;;;1.15;;
53052;SDS011;38934;52.690;6.184;2022-08-20T11:18:09;3.90;;;1.10;;
53052;SDS011;38934;52.690;6.184;2022-08-20T11:20:36;3.05;;;1.10;;
53052;SDS011;38934;52.690;6.184;2022-08-20T11:23:02;1.80;;;1.00;;
53052;SDS011;38934;52.690;6.184;2022-08-20T11:25:28;3.83;;;1.30;;
53052;SDS011;38934;52.690;6.184;2022-08-20T11:27:54;2.47;;;1.20;;
53052;SDS011;38934;52.690;6.184;2022-08-20T11:30:22;3.30;;;1.20;;
53052;SDS011;38934;52.690;6.184;2022-08-20T11:32:50;2.67;;;1.00;;
53052;SDS011;38934;52.690;6.184;2022-08-20T11:35:15;3.28;;;1.00;;
53052;SDS011;38934;52.690;6.184;2022-08-20T11:37:42;2.53;;;1.08;;
53052;SDS011;38934;52.690;6.184;2022-08-20T11:40:08;2.92;;;1.15;;
53052;SDS011;38934;52.690;6.184;2022-08-20T11:42:35;3.35;;;1.20;;
53052;SDS011;38934;52.690;6.184;2022-08-20T11:45:01;2.47;;;1.08;;
53052;SDS011;38934;52.690;6.184;2022-08-20T11:47:28;3.15;;;1.10;;
53052;SDS011;38934;52.690;6.184;2022-08-20T11:49:55;1.27;;;0.90;;
53052;SDS011;38934;52.690;6.184;2022-08-20T11:52:22;1.00;;;0.70;;
53052;SDS011;38934;52.690;6.184;2022-08-20T11:54:47;4.07;;;1.40;;
53052;SDS011;38934;52.690;6.184;2022-08-20T11:57:18;2.78;;;0.80;;
53052;SDS011;38934;52.690;6.184;2022-08-20T11:59:52;3.63;;;1.00;;
53052;SDS011;38934;52.690;6.184;2022-08-20T12:02:21;3.45;;;0.80;;
53052;SDS011;38934;52.690;6.184;2022-08-20T12:04:47;2.85;;;1.00;;
53052;SDS011;38934;52.690;6.184;2022-08-20T12:07:14;5.50;;;1.10;;
53052;SDS011;38934;52.690;6.184;2022-08-20T12:09:45;1.90;;;1.23;;
53052;SDS011;38934;52.690;6.184;2022-08-20T12:12:12;2.60;;;1.00;;
53052;SDS011;38934;52.690;6.184;2022-08-20T12:14:38;4.10;;;1.10;;
53052;SDS011;38934;52.690;6.184;2022-08-20T12:17:07;2.78;;;1.27;;
53052;SDS011;38934;52.690;6.184;2022-08-20T12:19:41;3.13;;;0.93;;
53052;SDS011;38934;52.690;6.184;2022-08-20T12:22:07;1.92;;;1.15;;
53052;SDS011;38934;52.690;6.184;2022-08-20T12:24:35;3.33;;;1.20;;
53052;SDS011;38934;52.690;6.184;2022-08-20T12:27:11;2.65;;;1.10;;
53052;SDS011;38934;52.690;6.184;2022-08-20T12:29:41;5.60;;;1.25;;
53052;SDS011;38934;52.690;6.184;2022-08-20T12:32:08;2.47;;;0.90;;
53052;SDS011;38934;52.690;6.184;2022-08-20T12:34:38;5.45;;;1.13;;
53052;SDS011;38934;52.690;6.184;2022-08-20T12:37:11;3.00;;;1.20;;
53052;SDS011;38934;52.690;6.184;2022-08-20T12:39:40;2.20;;;0.90;;
53052;SDS011;38934;52.690;6.184;2022-08-20T12:42:08;3.78;;;1.38;;
53052;SDS011;38934;52.690;6.184;2022-08-20T12:44:34;3.53;;;1.60;;
53052;SDS011;38934;52.690;6.184;2022-08-20T12:47:14;5.75;;;1.52;;
53052;SDS011;38934;52.690;6.184;2022-08-20T12:49:48;3.83;;;1.23;;
53052;SDS011;38934;52.690;6.184;2022-08-20T12:52:21;2.25;;;0.95;;
53052;SDS011;38934;52.690;6.184;2022-08-20T12:54:48;3.05;;;1.10;;
53052;SDS011;38934;52.690;6.184;2022-08-20T12:57:17;2.83;;;1.00;;
53052;SDS011;38934;52.690;6.184;2022-08-20T12:59:46;5.20;;;1.27;;
53052;SDS011;38934;52.690;6.184;2022-08-20T13:02:12;3.50;;;1.02;;
53052;SDS011;38934;52.690;6.184;2022-08-20T13:04:37;2.13;;;1.20;;
53052;SDS011;38934;52.690;6.184;2022-08-20T13:07:03;2.55;;;1.20;;
53052;SDS011;38934;52.690;6.184;2022-08-20T13:09:29;2.08;;;1.05;;
53052;SDS011;38934;52.690;6.184;2022-08-20T13:11:55;3.83;;;1.10;;
53052;SDS011;38934;52.690;6.184;2022-08-20T13:14:21;4.60;;;1.55;;
53052;SDS011;38934;52.690;6.184;2022-08-20T13:16:52;4.97;;;1.10;;
53052;SDS011;38934;52.690;6.184;2022-08-20T13:19:20;4.18;;;1.60;;
53052;SDS011;38934;52.690;6.184;2022-08-20T13:21:45;4.90;;;1.30;;
53052;SDS011;38934;52.690;6.184;2022-08-20T13:24:11;2.65;;;1.42;;
53052;SDS011;38934;52.690;6.184;2022-08-20T13:26:36;3.97;;;1.40;;
53052;SDS011;38934;52.690;6.184;2022-08-20T13:29:02;2.88;;;1.25;;
53052;SDS011;38934;52.690;6.184;2022-08-20T13:31:27;3.13;;;1.20;;
53052;SDS011;38934;52.690;6.184;2022-08-20T13:33:56;3.08;;;1.50;;
53052;SDS011;38934;52.690;6.184;2022-08-20T13:36:22;4.75;;;1.30;;
53052;SDS011;38934;52.690;6.184;2022-08-20T13:38:47;3.92;;;1.25;;
53052;SDS011;38934;52.690;6.184;2022-08-20T13:41:13;4.00;;;1.60;;
53052;SDS011;38934;52.690;6.184;2022-08-20T13:43:39;3.10;;;1.20;;
53052;SDS011;38934;52.690;6.184;2022-08-20T13:46:04;4.10;;;1.73;;
53052;SDS011;38934;52.690;6.184;2022-08-20T13:48:30;3.00;;;0.98;;
53052;SDS011;38934;52.690;6.184;2022-08-20T13:50:57;3.22;;;1.30;;
53052;SDS011;38934;52.690;6.184;2022-08-20T13:53:22;3.53;;;1.10;;
53052;SDS011;38934;52.690;6.184;2022-08-20T13:55:48;3.55;;;1.58;;
53052;SDS011;38934;52.690;6.184;2022-08-20T13:58:14;2.42;;;1.10;;
53052;SDS011;38934;52.690;6.184;2022-08-20T14:00:41;3.92;;;1.33;;
53052;SDS011;38934;52.690;6.184;2022-08-20T14:03:08;2.90;;;1.40;;
53052;SDS011;38934;52.690;6.184;2022-08-20T14:05:35;4.32;;;1.42;;
53052;SDS011;38934;52.690;6.184;2022-08-20T14:08:06;4.93;;;1.60;;
53052;SDS011;38934;52.690;6.184;2022-08-20T14:10:34;5.28;;;1.50;;
53052;SDS011;38934;52.690;6.184;2022-08-20T14:13:00;5.82;;;1.58;;
53052;SDS011;38934;52.690;6.184;2022-08-20T14:15:27;5.50;;;1.20;;
53052;SDS011;38934;52.690;6.184;2022-08-20T14:17:54;3.70;;;1.27;;
53052;SDS011;38934;52.690;6.184;2022-08-20T14:20:21;3.92;;;1.35;;
53052;SDS011;38934;52.690;6.184;2022-08-20T14:22:49;4.40;;;1.70;;
53052;SDS011;38934;52.690;6.184;2022-08-20T14:25:16;3.80;;;1.33;;
53052;SDS011;38934;52.690;6.184;2022-08-20T14:27:44;4.32;;;1.20;;
53052;SDS011;38934;52.690;6.184;2022-08-20T14:30:11;4.00;;;1.45;;
53052;SDS011;38934;52.690;6.184;2022-08-20T14:32:39;3.60;;;1.33;;
53052;SDS011;38934;52.690;6.184;2022-08-20T14:35:05;4.65;;;1.20;;
53052;SDS011;38934;52.690;6.184;2022-08-20T14:37:32;4.55;;;1.25;;
53052;SDS011;38934;52.690;6.184;2022-08-20T14:40:02;4.22;;;1.23;;
53052;SDS011;38934;52.690;6.184;2022-08-20T14:42:30;4.05;;;1.58;;
53052;SDS011;38934;52.690;6.184;2022-08-20T14:44:57;3.55;;;1.30;;
53052;SDS011;38934;52.690;6.184;2022-08-20T14:47:26;6.00;;;1.42;;
53052;SDS011;38934;52.690;6.184;2022-08-20T14:49:55;4.70;;;1.30;;
53052;SDS011;38934;52.690;6.184;2022-08-20T14:52:28;2.95;;;1.30;;
53052;SDS011;38934;52.690;6.184;2022-08-20T14:54:55;6.18;;;1.60;;
53052;SDS011;38934;52.690;6.184;2022-08-20T14:57:21;6.03;;;1.70;;
53052;SDS011;38934;52.690;6.184;2022-08-20T14:59:47;3.22;;;1.23;;
53052;SDS011;38934;52.690;6.184;2022-08-20T15:02:14;3.40;;;1.30;;
53052;SDS011;38934;52.690;6.184;2022-08-20T15:04:41;3.53;;;1.30;;
53052;SDS011;38934;52.690;6.184;2022-08-20T15:07:12;4.05;;;1.40;;
53052;SDS011;38934;52.690;6.184;2022-08-20T15:09:40;4.28;;;1.30;;